Pagina principale
METAR-TAF:

METAR-TAF

Aeroporti :

Air Force Base Waterkloof

Waterkloof, Sudafrica

latitudine: 25-50S, longitudine: 028-13E, altezza: 1498 m

Osservazione

Il bollettino è stato emesso 20 minuti fa, alle 18:00 UTC
Vento 3 kt da sud/sud-est
Temperature
Pressione 1027 hPa

METAR: FAWK 241800Z AUTO 15003KT //// // ////// ///// Q1027

Ora: 20:20 (18:20 UTC)

Previsione

Il bollettino è stato emesso 9 ore e 20 minuti fa, alle 09:00 UTC
Previsione valida dal 24 alle 10 UTC al 24 alle 18 UTC
Vento 3 kt da direzioni variabili
Visibilità 10 km o più
nessuna nube inferiore a 1500 m e nessun cumulonembo
Evoluzione graduale
dal 24 alle 11 UTC al 24 alle 13 UTC
Vento 8 kt da sud/sud-ovest

TAF: FAWK 240900Z 2410/2418 VRB03KT CAVOK BECMG 2411/2413 20008KT TX24/2413Z TN11/2418Z

Osservazioni e previsioni meteorologiche di più di 4000 aeroporti (messaggi METAR e TAF).

Le stazioni disponibili sono rappresentate dai dischi gialli e rossi sulla carta.

Puntare il mouse per vedere il nome della stazione.

Clicca sopra per visualizzare le osservazioni e previsioni meteorologiche.

Per cambiare la mappa : fare clic sui pulsanti verdi con una croce nera per ingrandire, il pulsante verde con un trattino per diminuire, o sulla freccia verde per le mappe adiacenti.


METAR-TAF: